Time,TemperatureF,DewpointF,PressureIn,WindDirection,WindDirectionDegrees,WindSpeedMPH,WindSpeedGustMPH,Humidity,HourlyPrecipIn,Conditions,Clouds,dailyrainin,SoftwareType,DateUTC
2013-01-04 00:04:00,17.6,11.6,30.18,WNW,292,13.5,13.5,77,0.00,CLR,BKN,0.00,WeatherDisplay:10.37,2013-01-04 06:04:00,
2013-01-04 00:09:00,17.6,11.9,30.19,WNW,292,9.4,13.8,78,0.00,CLR,BKN,0.00,WeatherDisplay:10.37,2013-01-04 06:09:00,
2013-01-04 00:14:00,17.4,11.4,30.19,West,270,13.2,15.0,77,0.00,CLR,BKN,0.00,WeatherDisplay:10.37,2013-01-04 06:14:00,
2013-01-04 00:19:00,17.2,11.6,30.18,West,270,10.5,12.7,78,0.00,CLR,BKN,0.00,WeatherDisplay:10.37,2013-01-04 06:19:00,
2013-01-04 00:24:00,17.2,11.6,30.18,NW,315,9.7,11.5,78,0.00,CLR,BKN,0.00,WeatherDisplay:10.37,2013-01-04 06:24:00,
2013-01-04 00:29:00,17.1,11.4,30.18,WNW,292,10.2,10.4,78,0.00,CLR,BKN,0.00,WeatherDisplay:10.37,2013-01-04 06:29:00,
2013-01-04 00:34:00,16.9,11.2,30.18,WNW,292,12.5,12.7,78,0.00,CLR,BKN,0.00,WeatherDisplay:10.37,2013-01-04 06:34:00,
2013-01-04 00:39:00,16.7,11.0,30.19,West,270,11.2,11.5,78,0.00,CLR,BKN,0.00,WeatherDisplay:10.37,2013-01-04 06:39:00,
2013-01-04 00:44:00,16.5,10.9,30.18,West,270,10.5,10.5,78,0.00,CLR,BKN,0.00,WeatherDisplay:10.37,2013-01-04 06:44:00,
2013-01-04 00:49:00,16.5,10.9,30.18,West,270,7.8,10.4,78,0.00,CLR,BKN,0.00,WeatherDisplay:10.37,2013-01-04 06:49:00,
2013-01-04 00:54:00,16.2,10.5,30.18,West,270,7.8,9.2,78,0.00,CLR,BKN,0.00,WeatherDisplay:10.37,2013-01-04 06:54:00,
2013-01-04 00:59:00,16.2,10.5,30.18,West,270,6.4,8.1,78,0.00,CLR,BKN,0.00,WeatherDisplay:10.37,2013-01-04 06:59:00,
2013-01-04 01:04:00,16.2,10.5,30.18,West,270,6.9,8.1,78,0.00,CLR,BKN,0.00,WeatherDisplay:10.37,2013-01-04 07:04:00,
2013-01-04 01:09:00,16.0,10.3,30.18,West,270,6.9,9.2,78,0.00,CLR,BKN,0.00,WeatherDisplay:10.37,2013-01-04 07:09:00,
2013-01-04 01:14:00,16.0,10.6,30.18,WSW,248,7.8,11.5,79,0.00,CLR,BKN,0.00,WeatherDisplay:10.37,2013-01-04 07:14:00,
2013-01-04 01:19:00,16.2,10.8,30.17,WSW,248,4.9,6.9,79,0.00,CLR,BKN,0.00,WeatherDisplay:10.37,2013-01-04 07:19:00,
2013-01-04 01:24:00,16.2,10.5,30.17,West,270,5.4,5.8,78,0.00,CLR,BKN,0.00,WeatherDisplay:10.37,2013-01-04 07:24:00,
2013-01-04 01:29:00,15.8,10.2,30.17,WNW,292,4.7,5.8,78,0.00,CLR,BKN,0.00,WeatherDisplay:10.37,2013-01-04 07:29:00,
2013-01-04 01:34:00,15.6,10.0,30.17,West,270,6.0,6.9,78,0.00,CLR,BKN,0.00,WeatherDisplay:10.37,2013-01-04 07:34:00,
2013-01-04 01:39:00,15.4,9.5,30.17,West,270,6.2,6.9,77,0.00,CLR,BKN,0.00,WeatherDisplay:10.37,2013-01-04 07:39:00,
2013-01-04 01:44:00,15.4,9.5,30.17,West,270,6.9,8.1,77,0.00,CLR,BKN,0.00,WeatherDisplay:10.37,2013-01-04 07:44:00,
2013-01-04 01:49:00,15.4,9.8,30.17,West,270,6.4,6.9,78,0.00,CLR,BKN,0.00,WeatherDisplay:10.37,2013-01-04 07:49:00,
2013-01-04 01:54:00,15.3,9.6,30.17,WSW,248,6.0,9.2,78,0.00,CLR,BKN,0.00,WeatherDisplay:10.37,2013-01-04 07:54:00,
2013-01-04 01:59:00,15.1,9.5,30.17,WSW,248,9.9,10.4,78,0.00,CLR,BKN,0.00,WeatherDisplay:10.37,2013-01-04 07:59:00,
2013-01-04 02:04:00,14.9,9.6,30.17,West,270,10.5,10.5,79,0.00,CLR,BKN,0.00,WeatherDisplay:10.37,2013-01-04 08:04:00,
2013-01-04 02:09:00,14.9,9.8,30.16,WSW,248,8.1,8.1,80,0.00,CLR,BKN,0.00,WeatherDisplay:10.37,2013-01-04 08:09:00,
2013-01-04 02:14:00,14.9,9.8,30.17,WSW,248,8.7,11.5,80,0.00,CLR,BKN,0.00,WeatherDisplay:10.37,2013-01-04 08:14:00,
2013-01-04 02:19:00,14.9,9.8,30.17,West,270,10.5,11.5,80,0.00,CLR,BKN,0.00,WeatherDisplay:10.37,2013-01-04 08:19:00,
2013-01-04 02:24:00,14.9,9.8,30.17,WSW,248,8.7,10.4,80,0.00,CLR,BKN,0.00,WeatherDisplay:10.37,2013-01-04 08:24:00,
2013-01-04 02:29:00,14.7,9.9,30.18,West,270,8.3,10.4,81,0.00,CLR,BKN,0.00,WeatherDisplay:10.37,2013-01-04 08:29:00,
2013-01-04 02:34:00,14.7,9.9,30.18,WSW,248,8.3,9.2,81,0.00,CLR,BKN,0.00,WeatherDisplay:10.37,2013-01-04 08:34:00,
2013-01-04 02:39:00,14.7,9.9,30.18,WSW,248,10.2,10.4,81,0.00,CLR,BKN,0.00,WeatherDisplay:10.37,2013-01-04 08:39:00,
2013-01-04 02:44:00,14.5,9.8,30.17,West,270,9.4,10.4,81,0.00,CLR,BKN,0.00,WeatherDisplay:10.37,2013-01-04 08:44:00,
2013-01-04 02:49:00,14.5,9.8,30.17,West,270,10.5,10.5,81,0.00,CLR,BKN,0.00,WeatherDisplay:10.37,2013-01-04 08:49:00,
2013-01-04 02:54:00,14.5,9.8,30.17,WNW,292,8.1,11.5,81,0.00,CLR,BKN,0.00,WeatherDisplay:10.37,2013-01-04 08:54:00,
2013-01-04 02:59:00,14.7,9.9,30.17,West,270,8.5,10.4,81,0.00,CLR,BKN,0.00,WeatherDisplay:10.37,2013-01-04 08:59:00,
2013-01-04 03:03:00,14.7,9.9,30.17,West,270,8.5,10.4,81,0.00,CLR,BKN,0.00,WeatherDisplay:10.37,2013-01-04 09:03:00,
2013-01-04 03:08:00,14.7,9.9,30.17,West,270,9.2,9.2,81,0.00,CLR,BKN,0.00,WeatherDisplay:10.37,2013-01-04 09:08:00,
2013-01-04 03:13:00,14.9,10.1,30.17,West,270,8.1,8.1,81,0.00,CLR,BKN,0.00,WeatherDisplay:10.37,2013-01-04 09:13:00,
2013-01-04 03:18:00,14.7,9.9,30.17,West,270,8.7,9.2,81,0.00,CLR,BKN,0.00,WeatherDisplay:10.37,2013-01-04 09:18:00,
2013-01-04 03:23:00,14.7,9.9,30.17,West,270,6.7,8.1,81,0.00,CLR,BKN,0.00,WeatherDisplay:10.37,2013-01-04 09:23:00,
2013-01-04 03:28:00,14.7,9.9,30.17,WNW,292,7.6,10.4,81,0.00,CLR,BKN,0.00,WeatherDisplay:10.37,2013-01-04 09:28:00,
2013-01-04 03:33:00,14.7,9.9,30.17,West,270,8.5,10.4,81,0.00,CLR,BKN,0.00,WeatherDisplay:10.37,2013-01-04 09:33:00,
2013-01-04 03:38:00,14.5,9.8,30.17,West,270,10.9,11.5,81,0.00,CLR,BKN,0.00,WeatherDisplay:10.37,2013-01-04 09:38:00,
2013-01-04 03:43:00,14.5,9.8,30.17,WSW,248,8.5,11.5,81,0.00,CLR,BKN,0.00,WeatherDisplay:10.37,2013-01-04 09:43:00,
2013-01-04 03:48:00,14.4,9.6,30.17,West,270,8.7,9.2,81,0.00,CLR,BKN,0.00,WeatherDisplay:10.37,2013-01-04 09:48:00,
2013-01-04 03:53:00,14.4,9.9,30.17,West,270,9.2,10.4,82,0.00,CLR,BKN,0.00,WeatherDisplay:10.37,2013-01-04 09:53:00,
2013-01-04 03:58:00,14.4,9.9,30.17,WSW,248,9.2,12.7,82,0.00,CLR,BKN,0.00,WeatherDisplay:10.37,2013-01-04 09:58:00,
2013-01-04 04:03:00,14.4,9.6,30.17,West,270,7.8,8.1,81,0.00,CLR,BKN,0.00,WeatherDisplay:10.37,2013-01-04 10:03:00,
2013-01-04 04:08:00,14.5,9.8,30.17,West,270,7.6,10.4,81,0.00,CLR,BKN,0.00,WeatherDisplay:10.37,2013-01-04 10:08:00,
2013-01-04 04:13:00,14.5,9.8,30.17,WSW,248,8.1,10.4,81,0.00,CLR,BKN,0.00,WeatherDisplay:10.37,2013-01-04 10:13:00,
2013-01-04 04:18:00,14.4,9.6,30.17,West,270,7.6,10.4,81,0.00,CLR,BKN,0.00,WeatherDisplay:10.37,2013-01-04 10:18:00,
2013-01-04 04:23:00,14.4,9.6,30.16,WSW,248,9.7,10.4,81,0.00,CLR,BKN,0.00,WeatherDisplay:10.37,2013-01-04 10:23:00,
2013-01-04 04:28:00,14.2,9.4,30.16,West,270,9.9,10.4,81,0.00,CLR,BKN,0.00,WeatherDisplay:10.37,2013-01-04 10:28:00,
2013-01-04 04:33:00,14.0,9.5,30.15,WSW,248,8.5,11.5,82,0.00,CLR,BKN,0.00,WeatherDisplay:10.37,2013-01-04 10:33:00,
2013-01-04 04:38:00,14.2,9.7,30.15,West,270,9.7,10.4,82,0.00,CLR,BKN,0.00,WeatherDisplay:10.37,2013-01-04 10:38:00,
2013-01-04 04:43:00,14.2,9.7,30.15,West,270,10.9,12.7,82,0.00,CLR,BKN,0.00,WeatherDisplay:10.37,2013-01-04 10:43:00,
2013-01-04 04:49:00,14.2,9.7,30.15,WSW,248,10.5,11.5,82,0.00,CLR,BKN,0.00,WeatherDisplay:10.37,2013-01-04 10:49:00,
2013-01-04 04:54:00,14.2,9.7,30.15,WSW,248,9.7,11.5,82,0.00,CLR,BKN,0.00,WeatherDisplay:10.37,2013-01-04 10:54:00,
2013-01-04 04:59:00,14.2,9.7,30.15,West,270,10.7,12.7,82,0.00,CLR,BKN,0.00,WeatherDisplay:10.37,2013-01-04 10:59:00,
2013-01-04 05:04:00,14.2,9.4,30.15,West,270,9.9,10.4,81,0.00,CLR,BKN,0.00,WeatherDisplay:10.37,2013-01-04 11:04:00,
2013-01-04 05:09:00,14.4,9.6,30.15,West,270,9.2,10.4,81,0.00,CLR,BKN,0.00,WeatherDisplay:10.37,2013-01-04 11:09:00,
2013-01-04 05:14:00,14.4,9.6,30.15,West,270,8.7,10.4,81,0.00,CLR,BKN,0.00,WeatherDisplay:10.37,2013-01-04 11:14:00,
2013-01-04 05:19:00,14.2,9.4,30.15,WSW,248,10.5,11.5,81,0.00,CLR,BKN,0.00,WeatherDisplay:10.37,2013-01-04 11:19:00,
2013-01-04 05:24:00,14.2,9.4,30.15,WSW,248,9.9,11.5,81,0.00,CLR,BKN,0.00,WeatherDisplay:10.37,2013-01-04 11:24:00,
2013-01-04 05:29:00,14.0,9.5,30.15,WSW,248,7.8,10.4,82,0.00,CLR,BKN,0.00,WeatherDisplay:10.37,2013-01-04 11:29:00,
2013-01-04 05:34:00,14.0,9.5,30.16,West,270,8.3,10.4,82,0.00,CLR,BKN,0.00,WeatherDisplay:10.37,2013-01-04 11:34:00,
2013-01-04 05:39:00,14.0,9.5,30.15,WSW,248,8.3,11.5,82,0.00,CLR,BKN,0.00,WeatherDisplay:10.37,2013-01-04 11:39:00,
2013-01-04 05:44:00,14.0,9.5,30.15,WSW,248,10.7,11.5,82,0.00,CLR,BKN,0.00,WeatherDisplay:10.37,2013-01-04 11:44:00,
2013-01-04 05:49:00,14.0,9.5,30.15,WSW,248,9.0,11.5,82,0.00,CLR,BKN,0.00,WeatherDisplay:10.37,2013-01-04 11:49:00,
2013-01-04 05:54:00,14.0,9.8,30.15,West,270,11.4,11.4,83,0.00,CLR,BKN,0.00,WeatherDisplay:10.37,2013-01-04 11:54:00,
2013-01-04 05:59:00,14.0,9.5,30.15,WSW,248,10.0,10.4,82,0.00,CLR,BKN,0.00,WeatherDisplay:10.37,2013-01-04 11:59:00,
2013-01-04 06:04:00,14.0,9.8,30.15,SW,225,14.3,14.3,83,0.00,CLR,BKN,0.00,WeatherDisplay:10.37,2013-01-04 12:04:00,
2013-01-04 06:09:00,14.0,9.8,30.15,WSW,248,13.5,16.1,83,0.00,CLR,BKN,0.00,WeatherDisplay:10.37,2013-01-04 12:09:00,
2013-01-04 06:14:00,14.0,10.1,30.15,WSW,248,15.6,16.1,84,0.00,CLR,BKN,0.00,WeatherDisplay:10.37,2013-01-04 12:14:00,
2013-01-04 06:19:00,14.0,10.1,30.15,WSW,248,15.4,15.4,84,0.00,CLR,BKN,0.00,WeatherDisplay:10.37,2013-01-04 12:19:00,
2013-01-04 06:24:00,14.4,10.4,30.14,WSW,248,11.6,13.8,84,0.00,CLR,BKN,0.00,WeatherDisplay:10.37,2013-01-04 12:24:00,
2013-01-04 06:29:00,14.5,10.3,30.14,WSW,248,12.8,12.8,83,0.00,CLR,BKN,0.00,WeatherDisplay:10.37,2013-01-04 12:29:00,
2013-01-04 06:34:00,14.7,10.5,30.14,WSW,248,9.9,12.7,83,0.00,CLR,BKN,0.00,WeatherDisplay:10.37,2013-01-04 12:34:00,
2013-01-04 06:39:00,14.7,10.5,30.15,SW,225,12.1,13.8,83,0.00,CLR,BKN,0.00,WeatherDisplay:10.37,2013-01-04 12:39:00,
2013-01-04 06:44:00,14.7,10.5,30.15,SW,225,11.4,11.5,83,0.00,CLR,BKN,0.00,WeatherDisplay:10.37,2013-01-04 12:44:00,
2013-01-04 06:49:00,14.7,10.8,30.14,WSW,248,9.7,15.0,84,0.00,CLR,BKN,0.00,WeatherDisplay:10.37,2013-01-04 12:49:00,
2013-01-04 06:54:00,14.7,10.5,30.14,WSW,248,12.8,15.0,83,0.00,CLR,BKN,0.00,WeatherDisplay:10.37,2013-01-04 12:54:00,
2013-01-04 06:59:00,14.7,10.5,30.14,WSW,248,16.3,16.3,83,0.00,CLR,BKN,0.00,WeatherDisplay:10.37,2013-01-04 12:59:00,
2013-01-04 07:04:00,14.7,10.5,30.14,WSW,248,14.0,14.0,83,0.00,CLR,BKN,0.00,WeatherDisplay:10.37,2013-01-04 13:04:00,
2013-01-04 07:09:00,14.5,10.3,30.14,WSW,248,16.8,17.3,83,0.00,CLR,BKN,0.00,WeatherDisplay:10.37,2013-01-04 13:09:00,
2013-01-04 07:14:00,14.7,10.8,30.14,WSW,248,12.5,15.0,84,0.00,CLR,BKN,0.00,WeatherDisplay:10.37,2013-01-04 13:14:00,
2013-01-04 07:19:00,14.5,10.6,30.14,WSW,248,15.9,16.1,84,0.00,CLR,BKN,0.00,WeatherDisplay:10.37,2013-01-04 13:19:00,
2013-01-04 07:24:00,14.5,10.6,30.14,WSW,248,12.3,13.8,84,0.00,CLR,BKN,0.00,WeatherDisplay:10.37,2013-01-04 13:24:00,
2013-01-04 07:29:00,14.5,10.6,30.14,West,270,13.5,16.1,84,0.00,CLR,BKN,0.00,WeatherDisplay:10.37,2013-01-04 13:29:00,
2013-01-04 07:34:00,14.5,10.6,30.14,WSW,248,15.9,16.1,84,0.00,CLR,BKN,0.00,WeatherDisplay:10.37,2013-01-04 13:34:00,
2013-01-04 07:39:00,14.9,10.9,30.14,WSW,248,10.5,12.7,84,0.00,CLR,BKN,0.00,WeatherDisplay:10.37,2013-01-04 13:39:00,
2013-01-04 07:44:00,15.1,11.1,30.14,WSW,248,12.8,13.8,84,0.00,CLR,BKN,0.00,WeatherDisplay:10.37,2013-01-04 13:44:00,
2013-01-04 07:49:00,15.4,11.5,30.14,SW,225,12.5,12.7,84,0.00,CLR,BKN,0.00,WeatherDisplay:10.37,2013-01-04 13:49:00,
2013-01-04 07:54:00,16.0,12.0,30.13,WSW,248,12.1,12.1,84,0.00,CLR,BKN,0.00,WeatherDisplay:10.37,2013-01-04 13:54:00,
2013-01-04 07:59:00,16.3,12.1,30.14,SW,225,11.4,11.5,83,0.00,CLR,BKN,0.00,WeatherDisplay:10.37,2013-01-04 13:59:00,
2013-01-04 08:04:00,16.9,12.3,30.13,WSW,248,14.0,17.3,82,0.00,CLR,BKN,0.00,WeatherDisplay:10.37,2013-01-04 14:04:00,
2013-01-04 08:09:00,17.2,12.7,30.14,SW,225,10.5,11.5,82,0.00,CLR,BKN,0.00,WeatherDisplay:10.37,2013-01-04 14:09:00,
2013-01-04 08:14:00,17.8,12.9,30.14,West,270,15.6,16.1,81,0.00,CLR,BKN,0.00,WeatherDisplay:10.37,2013-01-04 14:14:00,
2013-01-04 08:19:00,18.1,13.3,30.14,WSW,248,12.8,13.8,81,0.00,CLR,BKN,0.00,WeatherDisplay:10.37,2013-01-04 14:19:00,
2013-01-04 08:24:00,18.3,13.7,30.14,WNW,292,11.4,13.8,82,0.00,CLR,BKN,0.00,WeatherDisplay:10.37,2013-01-04 14:24:00,
2013-01-04 08:29:00,18.7,14.1,30.14,WSW,248,12.5,15.0,82,0.00,CLR,BKN,0.00,WeatherDisplay:10.37,2013-01-04 14:29:00,
2013-01-04 08:34:00,19.0,14.4,30.14,West,270,9.2,11.5,82,0.00,CLR,BKN,0.00,WeatherDisplay:10.37,2013-01-04 14:34:00,
2013-01-04 08:39:00,19.6,15.0,30.14,WSW,248,15.0,15.0,82,0.00,CLR,BKN,0.00,WeatherDisplay:10.37,2013-01-04 14:39:00,
2013-01-04 08:44:00,19.9,15.3,30.14,WSW,248,12.8,15.0,82,0.00,CLR,BKN,0.00,WeatherDisplay:10.37,2013-01-04 14:44:00,
2013-01-04 08:49:00,20.5,15.9,30.14,WSW,248,10.2,13.8,82,0.00,CLR,BKN,0.00,WeatherDisplay:10.37,2013-01-04 14:49:00,
2013-01-04 08:54:00,21.0,16.1,30.14,West,270,15.0,16.1,81,0.00,CLR,BKN,0.00,WeatherDisplay:10.37,2013-01-04 14:54:00,
2013-01-04 08:59:00,21.4,16.5,30.14,West,270,14.3,15.0,81,0.00,CLR,BKN,0.00,WeatherDisplay:10.37,2013-01-04 14:59:00,
2013-01-04 09:04:00,21.9,17.0,30.14,West,270,15.4,15.4,81,0.00,CLR,BKN,0.00,WeatherDisplay:10.37,2013-01-04 15:04:00,
2013-01-04 09:09:00,22.8,17.6,30.14,WSW,248,14.0,14.0,80,0.00,CLR,BKN,0.00,WeatherDisplay:10.37,2013-01-04 15:09:00,
2013-01-04 09:14:00,23.5,18.3,30.15,WSW,248,12.8,13.8,80,0.00,CLR,BKN,0.00,WeatherDisplay:10.37,2013-01-04 15:14:00,
2013-01-04 09:19:00,24.1,18.8,30.15,West,270,16.1,16.1,80,0.00,CLR,BKN,0.00,WeatherDisplay:10.37,2013-01-04 15:19:00,
2013-01-04 09:24:00,24.8,19.2,30.15,West,270,17.3,17.3,79,0.00,CLR,BKN,0.00,WeatherDisplay:10.37,2013-01-04 15:24:00,
2013-01-04 09:29:00,25.5,19.9,30.15,WNW,292,17.3,17.3,79,0.00,CLR,BKN,0.00,WeatherDisplay:10.37,2013-01-04 15:29:00,
2013-01-04 09:34:00,25.9,19.7,30.15,West,270,16.3,16.3,77,0.00,CLR,BKN,0.00,WeatherDisplay:10.37,2013-01-04 15:34:00,
2013-01-04 09:39:00,26.2,20.0,30.15,WNW,292,12.3,15.0,77,0.00,CLR,BKN,0.00,WeatherDisplay:10.37,2013-01-04 15:39:00,
2013-01-04 09:44:00,26.8,19.9,30.15,West,270,15.6,18.4,75,0.00,CLR,BKN,0.00,WeatherDisplay:10.37,2013-01-04 15:44:00,
2013-01-04 09:49:00,27.0,20.1,30.15,West,270,13.0,13.8,75,0.00,CLR,BKN,0.00,WeatherDisplay:10.37,2013-01-04 15:49:00,
2013-01-04 09:54:00,27.5,20.9,30.15,West,270,13.0,15.0,76,0.00,CLR,BKN,0.00,WeatherDisplay:10.37,2013-01-04 15:54:00,
2013-01-04 09:59:00,27.7,20.8,30.15,West,270,14.5,17.3,75,0.00,CLR,BKN,0.00,WeatherDisplay:10.37,2013-01-04 15:59:00,
2013-01-04 10:04:00,28.4,21.5,30.15,West,270,17.0,17.3,75,0.00,CLR,BKN,0.00,WeatherDisplay:10.37,2013-01-04 16:04:00,
2013-01-04 10:09:00,29.1,21.9,30.15,West,270,18.1,18.4,74,0.00,CLR,BKN,0.00,WeatherDisplay:10.37,2013-01-04 16:09:00,
2013-01-04 10:14:00,29.5,21.9,30.15,West,270,20.4,20.4,73,0.00,CLR,BKN,0.00,WeatherDisplay:10.37,2013-01-04 16:14:00,
2013-01-04 10:19:00,29.7,21.7,30.14,WSW,248,15.6,17.3,72,0.00,CLR,BKN,0.00,WeatherDisplay:10.37,2013-01-04 16:19:00,
2013-01-04 10:24:00,30.0,22.1,30.14,West,270,13.5,16.1,72,0.00,CLR,BKN,0.00,WeatherDisplay:10.37,2013-01-04 16:24:00,
2013-01-04 10:29:00,30.6,22.3,30.14,West,270,13.5,17.3,71,0.00,CLR,BKN,0.00,WeatherDisplay:10.37,2013-01-04 16:29:00,
2013-01-04 10:34:00,30.7,22.1,30.14,WSW,248,17.3,17.3,70,0.00,CLR,BKN,0.00,WeatherDisplay:10.37,2013-01-04 16:34:00,
2013-01-04 10:39:00,31.1,22.5,30.14,West,270,19.2,19.6,70,0.00,CLR,BKN,0.00,WeatherDisplay:10.37,2013-01-04 16:39:00,
2013-01-04 10:44:00,31.6,23.0,30.14,WNW,292,16.3,19.6,70,0.00,CLR,BKN,0.00,WeatherDisplay:10.37,2013-01-04 16:44:00,
2013-01-04 10:49:00,32.0,22.6,30.13,West,270,17.9,19.6,68,0.00,CLR,BKN,0.00,WeatherDisplay:10.37,2013-01-04 16:49:00,
2013-01-04 10:54:00,32.2,23.1,30.13,WSW,248,12.8,16.1,69,0.00,CLR,BKN,0.00,WeatherDisplay:10.37,2013-01-04 16:54:00,
2013-01-04 10:59:00,32.7,23.3,30.13,West,270,19.2,19.6,68,0.00,CLR,BKN,0.00,WeatherDisplay:10.37,2013-01-04 16:59:00,
2013-01-04 11:04:00,33.1,23.7,30.13,West,270,17.0,18.4,68,0.00,CLR,BKN,0.00,WeatherDisplay:10.37,2013-01-04 17:04:00,
2013-01-04 11:09:00,33.4,24.0,30.13,West,270,15.2,17.3,68,0.00,CLR,BKN,0.00,WeatherDisplay:10.37,2013-01-04 17:09:00,
2013-01-04 11:14:00,33.6,24.2,30.13,WNW,292,13.5,18.4,68,0.00,CLR,BKN,0.00,WeatherDisplay:10.37,2013-01-04 17:14:00,
2013-01-04 11:19:00,34.0,24.2,30.13,West,270,12.3,15.0,67,0.00,CLR,BKN,0.00,WeatherDisplay:10.37,2013-01-04 17:19:00,
2013-01-04 11:24:00,34.3,24.5,30.12,WNW,292,16.3,16.3,67,0.00,CLR,BKN,0.00,WeatherDisplay:10.37,2013-01-04 17:24:00,
2013-01-04 11:29:00,34.5,24.3,30.12,NW,315,14.7,18.4,66,0.00,CLR,BKN,0.00,WeatherDisplay:10.37,2013-01-04 17:29:00,
2013-01-04 11:34:00,34.9,24.7,30.12,West,270,15.6,19.6,66,0.00,CLR,BKN,0.00,WeatherDisplay:10.37,2013-01-04 17:34:00,
2013-01-04 11:39:00,35.2,24.6,30.12,WNW,292,19.7,20.7,65,0.00,CLR,BKN,0.00,WeatherDisplay:10.37,2013-01-04 17:39:00,
2013-01-04 11:44:00,35.6,24.6,30.11,West,270,14.3,17.3,64,0.00,CLR,BKN,0.00,WeatherDisplay:10.37,2013-01-04 17:44:00,
2013-01-04 11:49:00,35.6,24.2,30.11,WNW,292,18.1,21.9,63,0.00,CLR,BKN,0.00,WeatherDisplay:10.37,2013-01-04 17:49:00,
2013-01-04 11:54:00,35.6,24.2,30.11,WSW,248,13.5,17.3,63,0.00,CLR,BKN,0.00,WeatherDisplay:10.37,2013-01-04 17:54:00,
2013-01-04 11:59:00,36.0,24.6,30.11,West,270,15.6,16.1,63,0.00,CLR,BKN,0.00,WeatherDisplay:10.37,2013-01-04 17:59:00,
2013-01-04 12:04:00,36.1,24.4,30.10,WNW,292,16.3,18.4,62,0.00,CLR,BKN,0.00,WeatherDisplay:10.37,2013-01-04 18:04:00,
2013-01-04 12:09:00,36.0,24.2,30.10,West,270,16.3,17.3,62,0.00,CLR,BKN,0.00,WeatherDisplay:10.37,2013-01-04 18:09:00,
2013-01-04 12:14:00,36.1,24.4,30.10,West,270,15.0,20.7,62,0.00,CLR,BKN,0.00,WeatherDisplay:10.37,2013-01-04 18:14:00,
2013-01-04 12:19:00,36.5,24.3,30.10,NW,315,21.5,21.5,61,0.00,CLR,BKN,0.00,WeatherDisplay:10.37,2013-01-04 18:19:00,
2013-01-04 12:24:00,36.5,23.9,30.10,WSW,248,16.3,19.6,60,0.00,CLR,BKN,0.00,WeatherDisplay:10.37,2013-01-04 18:24:00,
2013-01-04 12:29:00,36.7,24.1,30.10,West,270,14.3,17.3,60,0.00,CLR,BKN,0.00,WeatherDisplay:10.37,2013-01-04 18:29:00,
2013-01-04 12:34:00,37.0,24.4,30.09,WNW,292,14.3,15.0,60,0.00,CLR,BKN,0.00,WeatherDisplay:10.37,2013-01-04 18:34:00,
2013-01-04 12:39:00,37.0,24.4,30.09,West,270,14.0,20.7,60,0.00,CLR,BKN,0.00,WeatherDisplay:10.37,2013-01-04 18:39:00,
2013-01-04 12:44:00,37.2,24.6,30.09,West,270,16.3,20.7,60,0.00,CLR,BKN,0.00,WeatherDisplay:10.37,2013-01-04 18:44:00,
2013-01-04 12:49:00,37.4,24.8,30.09,West,270,20.1,21.9,60,0.00,CLR,BKN,0.00,WeatherDisplay:10.37,2013-01-04 18:49:00,
2013-01-04 12:54:00,37.6,24.5,30.08,WSW,248,21.7,21.9,59,0.00,CLR,BKN,0.00,WeatherDisplay:10.37,2013-01-04 18:54:00,
2013-01-04 12:59:00,37.6,24.1,30.08,West,270,19.0,20.7,58,0.00,CLR,BKN,0.00,WeatherDisplay:10.37,2013-01-04 18:59:00,
2013-01-04 13:04:00,37.4,24.4,30.08,West,270,19.2,19.6,59,0.00,CLR,BKN,0.00,WeatherDisplay:10.37,2013-01-04 19:04:00,
2013-01-04 13:09:00,37.2,23.8,30.08,WSW,248,17.9,18.4,58,0.00,CLR,BKN,0.00,WeatherDisplay:10.37,2013-01-04 19:09:00,
2013-01-04 13:14:00,37.2,24.2,30.08,West,270,18.5,20.7,59,0.00,CLR,BKN,0.00,WeatherDisplay:10.37,2013-01-04 19:14:00,
2013-01-04 13:19:00,37.4,24.0,30.07,West,270,17.3,23.0,58,0.00,CLR,BKN,0.00,WeatherDisplay:10.37,2013-01-04 19:19:00,
2013-01-04 13:24:00,37.4,24.0,30.07,West,270,16.6,19.6,58,0.00,CLR,BKN,0.00,WeatherDisplay:10.37,2013-01-04 19:24:00,
2013-01-04 13:29:00,37.4,24.4,30.08,West,270,18.5,18.5,59,0.00,CLR,BKN,0.00,WeatherDisplay:10.37,2013-01-04 19:29:00,
2013-01-04 13:34:00,37.2,24.2,30.07,WSW,248,20.8,26.5,59,0.00,CLR,BKN,0.00,WeatherDisplay:10.37,2013-01-04 19:34:00,
2013-01-04 13:39:00,37.0,24.0,30.08,WNW,292,19.4,19.6,59,0.00,CLR,BKN,0.00,WeatherDisplay:10.37,2013-01-04 19:39:00,
2013-01-04 13:44:00,37.2,24.6,30.08,West,270,13.5,15.0,60,0.00,CLR,BKN,0.00,WeatherDisplay:10.37,2013-01-04 19:44:00,
2013-01-04 13:49:00,37.4,24.4,30.07,West,270,19.7,20.7,59,0.00,CLR,BKN,0.00,WeatherDisplay:10.37,2013-01-04 19:49:00,
2013-01-04 13:54:00,37.4,24.4,30.07,West,270,18.5,19.6,59,0.00,CLR,BKN,0.00,WeatherDisplay:10.37,2013-01-04 19:54:00,
2013-01-04 13:59:00,37.0,24.0,30.07,West,270,15.0,18.4,59,0.00,CLR,BKN,0.00,WeatherDisplay:10.37,2013-01-04 19:59:00,
2013-01-04 14:04:00,37.0,24.0,30.07,West,270,17.5,23.0,59,0.00,CLR,BKN,0.00,WeatherDisplay:10.37,2013-01-04 20:04:00,
2013-01-04 14:09:00,37.0,24.0,30.07,WNW,292,16.6,20.7,59,0.00,CLR,BKN,0.00,WeatherDisplay:10.37,2013-01-04 20:09:00,
2013-01-04 14:14:00,37.2,24.6,30.07,WNW,292,18.5,18.5,60,0.00,CLR,BKN,0.00,WeatherDisplay:10.37,2013-01-04 20:14:00,
2013-01-04 14:19:00,37.0,24.4,30.07,West,270,14.7,17.3,60,0.00,CLR,BKN,0.00,WeatherDisplay:10.37,2013-01-04 20:19:00,
2013-01-04 14:24:00,37.0,24.4,30.08,WNW,292,19.7,19.7,60,0.00,CLR,BKN,0.00,WeatherDisplay:10.37,2013-01-04 20:24:00,
2013-01-04 14:29:00,37.0,24.4,30.08,WNW,292,16.3,21.9,60,0.00,CLR,BKN,0.00,WeatherDisplay:10.37,2013-01-04 20:29:00,
2013-01-04 14:34:00,37.0,24.4,30.08,West,270,14.0,18.4,60,0.00,CLR,BKN,0.00,WeatherDisplay:10.37,2013-01-04 20:34:00,
2013-01-04 14:39:00,36.9,24.3,30.08,WNW,292,16.6,18.4,60,0.00,CLR,BKN,0.00,WeatherDisplay:10.37,2013-01-04 20:39:00,
2013-01-04 14:44:00,37.0,24.4,30.08,West,270,18.5,21.9,60,0.00,CLR,BKN,0.00,WeatherDisplay:10.37,2013-01-04 20:44:00,
2013-01-04 14:49:00,36.9,24.3,30.08,WSW,248,16.6,18.4,60,0.00,CLR,BKN,0.00,WeatherDisplay:10.37,2013-01-04 20:49:00,
2013-01-04 14:54:00,36.5,23.9,30.08,West,270,19.0,24.2,60,0.00,CLR,BKN,0.00,WeatherDisplay:10.37,2013-01-04 20:54:00,
2013-01-04 14:59:00,36.5,24.3,30.08,West,270,15.9,16.1,61,0.00,CLR,BKN,0.00,WeatherDisplay:10.37,2013-01-04 20:59:00,
2013-01-04 15:04:00,36.5,24.3,30.08,WSW,248,15.4,19.6,61,0.00,CLR,BKN,0.00,WeatherDisplay:10.37,2013-01-04 21:04:00,
2013-01-04 15:09:00,36.3,24.1,30.08,West,270,19.7,19.7,61,0.00,CLR,BKN,0.00,WeatherDisplay:10.37,2013-01-04 21:09:00,
2013-01-04 15:14:00,36.3,24.1,30.08,West,270,19.4,19.6,61,0.00,CLR,BKN,0.00,WeatherDisplay:10.37,2013-01-04 21:14:00,
2013-01-04 15:19:00,36.1,24.4,30.08,West,270,17.9,19.6,62,0.00,CLR,BKN,0.00,WeatherDisplay:10.37,2013-01-04 21:19:00,
2013-01-04 15:24:00,36.1,24.4,30.09,WSW,248,18.5,19.6,62,0.00,CLR,BKN,0.00,WeatherDisplay:10.37,2013-01-04 21:24:00,
2013-01-04 15:29:00,36.0,24.2,30.09,WSW,248,14.7,21.9,62,0.00,CLR,BKN,0.00,WeatherDisplay:10.37,2013-01-04 21:29:00,
2013-01-04 15:34:00,36.0,24.2,30.09,WSW,248,13.9,13.9,62,0.00,CLR,BKN,0.00,WeatherDisplay:10.37,2013-01-04 21:34:00,
2013-01-04 15:39:00,35.8,24.0,30.09,WSW,248,14.3,17.3,62,0.00,CLR,BKN,0.00,WeatherDisplay:10.37,2013-01-04 21:39:00,
2013-01-04 15:44:00,35.8,24.0,30.09,WSW,248,13.5,18.4,62,0.00,CLR,BKN,0.00,WeatherDisplay:10.37,2013-01-04 21:44:00,
2013-01-04 15:49:00,35.6,24.2,30.09,West,270,16.6,20.7,63,0.00,CLR,BKN,0.00,WeatherDisplay:10.37,2013-01-04 21:49:00,
2013-01-04 15:54:00,35.4,24.1,30.09,West,270,19.2,19.6,63,0.00,CLR,BKN,0.00,WeatherDisplay:10.37,2013-01-04 21:54:00,
2013-01-04 15:59:00,35.2,23.9,30.09,WSW,248,14.0,16.1,63,0.00,CLR,BKN,0.00,WeatherDisplay:10.37,2013-01-04 21:59:00,
2013-01-04 16:04:00,35.1,24.1,30.09,WSW,248,15.2,18.4,64,0.00,CLR,BKN,0.00,WeatherDisplay:10.37,2013-01-04 22:04:00,
2013-01-04 16:09:00,34.9,23.9,30.10,West,270,16.3,16.3,64,0.00,CLR,BKN,0.00,WeatherDisplay:10.37,2013-01-04 22:09:00,
2013-01-04 16:14:00,34.9,24.3,30.10,West,270,11.4,15.0,65,0.00,CLR,BKN,0.00,WeatherDisplay:10.37,2013-01-04 22:14:00,
2013-01-04 16:19:00,34.7,24.1,30.10,West,270,9.9,12.7,65,0.00,CLR,BKN,0.00,WeatherDisplay:10.37,2013-01-04 22:19:00,
2013-01-04 16:24:00,34.3,24.2,30.10,WSW,248,14.3,14.3,66,0.00,CLR,BKN,0.00,WeatherDisplay:10.37,2013-01-04 22:24:00,
2013-01-04 16:29:00,34.2,24.0,30.10,West,270,12.8,12.8,66,0.00,CLR,BKN,0.00,WeatherDisplay:10.37,2013-01-04 22:29:00,
2013-01-04 16:34:00,34.2,24.0,30.10,WSW,248,12.3,12.7,66,0.00,CLR,BKN,0.00,WeatherDisplay:10.37,2013-01-04 22:34:00,
2013-01-04 16:39:00,33.8,24.0,30.11,West,270,10.5,12.7,67,0.00,CLR,BKN,0.00,WeatherDisplay:10.37,2013-01-04 22:39:00,
2013-01-04 16:44:00,33.6,23.8,30.11,WSW,248,10.5,11.5,67,0.00,CLR,BKN,0.00,WeatherDisplay:10.37,2013-01-04 22:44:00,
2013-01-04 16:49:00,33.4,23.7,30.11,West,270,12.5,12.5,67,0.00,CLR,BKN,0.00,WeatherDisplay:10.37,2013-01-04 22:49:00,
2013-01-04 16:54:00,33.1,23.7,30.11,WSW,248,11.4,11.5,68,0.00,CLR,BKN,0.00,WeatherDisplay:10.37,2013-01-04 22:54:00,
2013-01-04 16:59:00,32.9,23.5,30.11,West,270,9.9,11.5,68,0.00,CLR,BKN,0.00,WeatherDisplay:10.37,2013-01-04 22:59:00,
2013-01-04 17:04:00,32.7,23.7,30.11,WSW,248,11.2,11.2,69,0.00,CLR,BKN,0.00,WeatherDisplay:10.37,2013-01-04 23:04:00,
2013-01-04 17:09:00,32.4,23.3,30.12,SW,225,11.4,11.4,69,0.00,CLR,BKN,0.00,WeatherDisplay:10.37,2013-01-04 23:09:00,
2013-01-04 17:14:00,32.0,23.3,30.12,WSW,248,15.0,15.0,70,0.00,CLR,BKN,0.00,WeatherDisplay:10.37,2013-01-04 23:14:00,
2013-01-04 17:19:00,32.0,23.7,30.12,WSW,248,12.1,12.1,71,0.00,CLR,BKN,0.00,WeatherDisplay:10.37,2013-01-04 23:19:00,
2013-01-04 17:24:00,31.8,23.5,30.12,WSW,248,12.1,15.0,71,0.00,CLR,BKN,0.00,WeatherDisplay:10.37,2013-01-04 23:24:00,
2013-01-04 17:29:00,31.8,23.8,30.12,WSW,248,13.5,13.8,72,0.00,CLR,BKN,0.00,WeatherDisplay:10.37,2013-01-04 23:29:00,
2013-01-04 17:34:00,31.6,23.6,30.12,WSW,248,10.7,13.8,72,0.00,CLR,BKN,0.00,WeatherDisplay:10.37,2013-01-04 23:34:00,
2013-01-04 17:39:00,31.5,23.8,30.12,WSW,248,12.3,13.8,73,0.00,CLR,BKN,0.00,WeatherDisplay:10.37,2013-01-04 23:39:00,
2013-01-04 17:44:00,31.3,24.0,30.12,WSW,248,11.4,13.8,74,0.00,CLR,BKN,0.00,WeatherDisplay:10.37,2013-01-04 23:44:00,
2013-01-04 17:49:00,31.1,23.8,30.12,West,270,12.8,15.0,74,0.00,CLR,BKN,0.00,WeatherDisplay:10.37,2013-01-04 23:49:00,
2013-01-04 17:54:00,31.1,23.8,30.12,West,270,13.0,13.8,74,0.00,CLR,BKN,0.00,WeatherDisplay:10.37,2013-01-04 23:54:00,
2013-01-04 17:59:00,30.9,23.6,30.12,WSW,248,10.7,11.5,74,0.00,CLR,BKN,0.00,WeatherDisplay:10.37,2013-01-04 23:59:00,
2013-01-04 18:04:00,30.7,23.8,30.12,WSW,248,9.2,10.4,75,0.00,CLR,BKN,0.00,WeatherDisplay:10.37,2013-01-05 00:04:00,
2013-01-04 18:09:00,30.6,23.6,30.13,WSW,248,9.2,11.5,75,0.00,CLR,BKN,0.00,WeatherDisplay:10.37,2013-01-05 00:09:00,
2013-01-04 18:14:00,30.4,23.7,30.13,WSW,248,9.9,11.5,76,0.00,CLR,BKN,0.00,WeatherDisplay:10.37,2013-01-05 00:14:00,
2013-01-04 18:19:00,30.2,23.5,30.13,WSW,248,8.5,11.5,76,0.00,CLR,BKN,0.00,WeatherDisplay:10.37,2013-01-05 00:19:00,
2013-01-04 18:24:00,30.2,23.5,30.13,West,270,10.9,11.5,76,0.00,CLR,BKN,0.00,WeatherDisplay:10.37,2013-01-05 00:24:00,
2013-01-04 18:29:00,30.0,23.4,30.13,WSW,248,10.5,11.5,76,0.00,CLR,BKN,0.00,WeatherDisplay:10.37,2013-01-05 00:29:00,
2013-01-04 18:34:00,30.0,23.7,30.13,WSW,248,12.1,13.8,77,0.00,CLR,BKN,0.00,WeatherDisplay:10.37,2013-01-05 00:34:00,
2013-01-04 18:39:00,30.0,23.4,30.13,WSW,248,13.7,13.7,76,0.00,CLR,BKN,0.00,WeatherDisplay:10.37,2013-01-05 00:39:00,
2013-01-04 18:44:00,29.8,23.5,30.13,WSW,248,11.4,11.5,77,0.00,CLR,BKN,0.00,WeatherDisplay:10.37,2013-01-05 00:44:00,
2013-01-04 18:49:00,29.7,23.0,30.13,WSW,248,8.5,10.4,76,0.00,CLR,BKN,0.00,WeatherDisplay:10.37,2013-01-05 00:49:00,
2013-01-04 18:54:00,29.5,23.2,30.13,West,270,9.4,10.4,77,0.00,CLR,BKN,0.00,WeatherDisplay:10.37,2013-01-05 00:54:00,
2013-01-04 18:59:00,29.3,23.0,30.13,WSW,248,10.2,10.4,77,0.00,CLR,BKN,0.00,WeatherDisplay:10.37,2013-01-05 00:59:00,
2013-01-04 19:04:00,29.5,23.2,30.13,WSW,248,10.5,11.5,77,0.00,CLR,BKN,0.00,WeatherDisplay:10.37,2013-01-05 01:04:00,
2013-01-04 19:09:00,29.8,23.5,30.13,WSW,248,10.5,11.5,77,0.00,CLR,BKN,0.00,WeatherDisplay:10.37,2013-01-05 01:09:00,
2013-01-04 19:14:00,29.8,23.5,30.13,WSW,248,10.7,11.5,77,0.00,CLR,BKN,0.00,WeatherDisplay:10.37,2013-01-05 01:14:00,
2013-01-04 19:19:00,29.8,23.2,30.13,WSW,248,15.6,15.6,76,0.00,CLR,BKN,0.00,WeatherDisplay:10.37,2013-01-05 01:19:00,
2013-01-04 19:24:00,29.7,23.3,30.13,WSW,248,11.4,12.7,77,0.00,CLR,BKN,0.00,WeatherDisplay:10.37,2013-01-05 01:24:00,
2013-01-04 19:29:00,29.5,23.2,30.13,WSW,248,11.6,12.7,77,0.00,CLR,BKN,0.00,WeatherDisplay:10.37,2013-01-05 01:29:00,
2013-01-04 19:34:00,29.7,23.3,30.13,WSW,248,10.2,12.7,77,0.00,CLR,BKN,0.00,WeatherDisplay:10.37,2013-01-05 01:34:00,
2013-01-04 19:39:00,29.7,23.3,30.13,WSW,248,9.7,10.4,77,0.00,CLR,BKN,0.00,WeatherDisplay:10.37,2013-01-05 01:39:00,
2013-01-04 19:44:00,29.7,23.3,30.13,WSW,248,11.6,12.7,77,0.00,CLR,BKN,0.00,WeatherDisplay:10.37,2013-01-05 01:44:00,
2013-01-04 19:49:00,29.5,23.2,30.13,WSW,248,12.1,12.7,77,0.00,CLR,BKN,0.00,WeatherDisplay:10.37,2013-01-05 01:49:00,
2013-01-04 19:54:00,29.3,23.0,30.13,WSW,248,15.2,15.2,77,0.00,CLR,BKN,0.00,WeatherDisplay:10.37,2013-01-05 01:54:00,
2013-01-04 19:59:00,29.3,23.3,30.13,WSW,248,12.8,13.8,78,0.00,CLR,BKN,0.00,WeatherDisplay:10.37,2013-01-05 01:59:00,
2013-01-04 20:04:00,29.1,23.1,30.13,WSW,248,9.7,11.5,78,0.00,CLR,BKN,0.00,WeatherDisplay:10.37,2013-01-05 02:04:00,
2013-01-04 20:09:00,29.1,23.1,30.13,WSW,248,10.5,11.5,78,0.00,CLR,BKN,0.00,WeatherDisplay:10.37,2013-01-05 02:09:00,
2013-01-04 20:14:00,29.1,23.1,30.13,WSW,248,10.2,12.7,78,0.00,CLR,BKN,0.00,WeatherDisplay:10.37,2013-01-05 02:14:00,
2013-01-04 20:19:00,28.9,22.9,30.13,West,270,10.7,10.7,78,0.00,CLR,BKN,0.00,WeatherDisplay:10.37,2013-01-05 02:19:00,
2013-01-04 20:24:00,28.8,22.8,30.13,West,270,8.1,10.4,78,0.00,CLR,BKN,0.00,WeatherDisplay:10.37,2013-01-05 02:24:00,
2013-01-04 20:29:00,28.8,22.8,30.13,WSW,248,9.0,10.4,78,0.00,CLR,BKN,0.00,WeatherDisplay:10.37,2013-01-05 02:29:00,
2013-01-04 20:34:00,28.6,22.9,30.13,SW,225,9.2,10.4,79,0.00,CLR,BKN,0.00,WeatherDisplay:10.37,2013-01-05 02:34:00,
2013-01-04 20:39:00,28.4,22.7,30.13,West,270,10.2,10.2,79,0.00,CLR,BKN,0.00,WeatherDisplay:10.37,2013-01-05 02:39:00,
2013-01-04 20:44:00,28.4,22.7,30.13,WSW,248,9.2,9.2,79,0.00,CLR,BKN,0.00,WeatherDisplay:10.37,2013-01-05 02:44:00,
2013-01-04 20:49:00,28.4,22.7,30.13,WSW,248,8.1,8.1,79,0.00,CLR,BKN,0.00,WeatherDisplay:10.37,2013-01-05 02:49:00,
2013-01-04 20:54:00,28.2,22.5,30.13,WSW,248,8.3,9.2,79,0.00,CLR,BKN,0.00,WeatherDisplay:10.37,2013-01-05 02:54:00,
2013-01-04 20:59:00,28.4,22.7,30.13,West,270,9.9,10.4,79,0.00,CLR,BKN,0.00,WeatherDisplay:10.37,2013-01-05 02:59:00,
2013-01-04 21:04:00,28.2,22.5,30.13,WSW,248,10.2,10.4,79,0.00,CLR,BKN,0.00,WeatherDisplay:10.37,2013-01-05 03:04:00,
2013-01-04 21:09:00,28.0,22.7,30.13,WSW,248,7.4,9.2,80,0.00,CLR,BKN,0.00,WeatherDisplay:10.37,2013-01-05 03:09:00,
2013-01-04 21:14:00,28.0,22.7,30.13,WSW,248,9.0,9.2,80,0.00,CLR,BKN,0.00,WeatherDisplay:10.37,2013-01-05 03:14:00,
2013-01-04 21:19:00,28.0,23.0,30.13,WSW,248,8.5,11.5,81,0.00,CLR,BKN,0.00,WeatherDisplay:10.37,2013-01-05 03:19:00,
2013-01-04 21:24:00,28.2,22.8,30.13,WSW,248,8.5,9.2,80,0.00,CLR,BKN,0.00,WeatherDisplay:10.37,2013-01-05 03:24:00,
2013-01-04 21:29:00,28.0,22.7,30.13,WSW,248,9.2,9.2,80,0.00,CLR,BKN,0.00,WeatherDisplay:10.37,2013-01-05 03:29:00,
2013-01-04 21:34:00,27.9,22.5,30.13,WSW,248,8.5,8.5,80,0.00,CLR,BKN,0.00,WeatherDisplay:10.37,2013-01-05 03:34:00,
2013-01-04 21:39:00,27.7,22.3,30.13,WSW,248,8.7,9.2,80,0.00,CLR,BKN,0.00,WeatherDisplay:10.37,2013-01-05 03:39:00,
2013-01-04 21:44:00,27.7,22.3,30.13,West,270,7.8,8.1,80,0.00,CLR,BKN,0.00,WeatherDisplay:10.37,2013-01-05 03:44:00,
2013-01-04 21:49:00,27.7,22.3,30.14,West,270,6.9,8.1,80,0.00,CLR,BKN,0.00,WeatherDisplay:10.37,2013-01-05 03:49:00,
2013-01-04 21:54:00,27.5,22.4,30.14,WSW,248,6.7,9.2,81,0.00,CLR,BKN,0.00,WeatherDisplay:10.37,2013-01-05 03:54:00,
2013-01-04 21:59:00,27.3,22.3,30.13,WSW,248,8.5,9.2,81,0.00,CLR,BKN,0.00,WeatherDisplay:10.37,2013-01-05 03:59:00,
2013-01-04 22:04:00,27.3,22.3,30.14,West,270,5.6,6.9,81,0.00,CLR,BKN,0.00,WeatherDisplay:10.37,2013-01-05 04:04:00,
2013-01-04 22:09:00,27.3,22.3,30.14,West,270,5.9,5.9,81,0.00,CLR,BKN,0.00,WeatherDisplay:10.37,2013-01-05 04:09:00,
2013-01-04 22:14:00,27.3,22.3,30.14,West,270,5.2,5.8,81,0.00,CLR,BKN,0.00,WeatherDisplay:10.37,2013-01-05 04:14:00,
2013-01-04 22:19:00,27.3,22.0,30.14,WSW,248,7.4,7.4,80,0.00,CLR,BKN,0.00,WeatherDisplay:10.37,2013-01-05 04:19:00,
2013-01-04 22:24:00,27.0,21.6,30.13,West,270,7.1,7.1,80,0.00,CLR,BKN,0.00,WeatherDisplay:10.37,2013-01-05 04:24:00,
2013-01-04 22:29:00,26.8,21.7,30.13,WSW,248,6.2,6.9,81,0.00,CLR,BKN,0.00,WeatherDisplay:10.37,2013-01-05 04:29:00,
2013-01-04 22:34:00,26.8,21.7,30.13,WSW,248,5.4,6.9,81,0.00,CLR,BKN,0.00,WeatherDisplay:10.37,2013-01-05 04:34:00,
2013-01-04 22:39:00,27.0,21.9,30.14,WSW,248,5.4,5.8,81,0.00,CLR,BKN,0.00,WeatherDisplay:10.37,2013-01-05 04:39:00,
2013-01-04 22:44:00,27.0,21.6,30.13,West,270,4.3,4.6,80,0.00,CLR,BKN,0.00,WeatherDisplay:10.37,2013-01-05 04:44:00,
2013-01-04 22:49:00,27.0,21.6,30.13,West,270,4.9,5.8,80,0.00,CLR,BKN,0.00,WeatherDisplay:10.37,2013-01-05 04:49:00,
2013-01-04 22:54:00,27.0,21.6,30.13,WSW,248,4.9,4.9,80,0.00,CLR,BKN,0.00,WeatherDisplay:10.37,2013-01-05 04:54:00,
2013-01-04 22:59:00,27.0,21.6,30.13,WSW,248,4.7,5.8,80,0.00,CLR,BKN,0.00,WeatherDisplay:10.37,2013-01-05 04:59:00,
2013-01-04 23:00:00,27.0,21.6,30.13,WSW,248,4.7,4.7,80,0.00,CLR,BKN,0.00,WeatherDisplay:10.37,2013-01-05 05:00:00,
2013-01-04 23:03:00,27.0,21.6,30.13,WSW,248,4.7,4.7,80,0.00,CLR,BKN,0.00,WeatherDisplay:10.37,2013-01-05 05:03:00,
2013-01-04 23:08:00,26.8,21.1,30.13,WSW,248,4.0,4.6,79,0.00,CLR,BKN,0.00,WeatherDisplay:10.37,2013-01-05 05:08:00,
2013-01-04 23:13:00,26.6,21.0,30.13,WSW,248,2.9,3.5,79,0.00,CLR,BKN,0.00,WeatherDisplay:10.37,2013-01-05 05:13:00,
2013-01-04 23:18:00,26.6,21.0,30.13,WNW,292,2.4,3.5,79,0.00,CLR,BKN,0.00,WeatherDisplay:10.37,2013-01-05 05:18:00,
2013-01-04 23:23:00,26.4,20.8,30.12,West,270,2.9,3.5,79,0.00,CLR,BKN,0.00,WeatherDisplay:10.37,2013-01-05 05:23:00,
2013-01-04 23:28:00,26.2,20.6,30.13,WSW,248,4.0,4.6,79,0.00,CLR,BKN,0.00,WeatherDisplay:10.37,2013-01-05 05:28:00,
2013-01-04 23:33:00,25.9,20.3,30.12,WSW,248,4.0,4.6,79,0.00,CLR,BKN,0.00,WeatherDisplay:10.37,2013-01-05 05:33:00,
2013-01-04 23:38:00,25.7,20.1,30.12,WSW,248,4.7,4.7,79,0.00,CLR,BKN,0.00,WeatherDisplay:10.37,2013-01-05 05:38:00,
2013-01-04 23:43:00,25.5,19.9,30.12,SW,225,4.0,4.6,79,0.00,CLR,BKN,0.00,WeatherDisplay:10.37,2013-01-05 05:43:00,
2013-01-04 23:48:00,25.5,20.2,30.12,SW,225,4.7,4.7,80,0.00,CLR,BKN,0.00,WeatherDisplay:10.37,2013-01-05 05:48:00,
2013-01-04 23:53:00,25.7,20.4,30.12,SW,225,5.9,5.9,80,0.00,CLR,BKN,0.00,WeatherDisplay:10.37,2013-01-05 05:53:00,
2013-01-04 23:58:00,25.7,20.7,30.13,WSW,248,10.2,10.2,81,0.00,CLR,BKN,0.00,WeatherDisplay:10.37,2013-01-05 05:58:00,